sensor_id;sensor_type;location;lat;lon;timestamp;temperature;humidity
8557;DHT22;4316;53.840;10.762;2023-07-13T00:01:29;18.70;99.90
8557;DHT22;4316;53.840;10.762;2023-07-13T00:03:57;18.80;99.90
8557;DHT22;4316;53.840;10.762;2023-07-13T00:06:23;18.80;99.90
8557;DHT22;4316;53.840;10.762;2023-07-13T00:08:48;18.70;99.90
8557;DHT22;4316;53.840;10.762;2023-07-13T00:11:15;18.70;99.90
8557;DHT22;4316;53.840;10.762;2023-07-13T00:13:42;18.60;99.90
8557;DHT22;4316;53.840;10.762;2023-07-13T00:16:09;18.60;99.90
8557;DHT22;4316;53.840;10.762;2023-07-13T00:18:35;18.50;99.90
8557;DHT22;4316;53.840;10.762;2023-07-13T00:21:01;18.60;99.90
8557;DHT22;4316;53.840;10.762;2023-07-13T00:23:35;18.60;99.90
8557;DHT22;4316;53.840;10.762;2023-07-13T00:26:03;18.60;99.90
8557;DHT22;4316;53.840;10.762;2023-07-13T00:28:28;18.60;99.90
8557;DHT22;4316;53.840;10.762;2023-07-13T00:30:54;18.60;99.90
8557;DHT22;4316;53.840;10.762;2023-07-13T00:33:20;18.60;99.90
8557;DHT22;4316;53.840;10.762;2023-07-13T00:35:46;18.70;99.90
8557;DHT22;4316;53.840;10.762;2023-07-13T00:38:13;18.70;99.90
8557;DHT22;4316;53.840;10.762;2023-07-13T00:40:39;18.60;99.90
8557;DHT22;4316;53.840;10.762;2023-07-13T00:43:13;18.60;99.90
8557;DHT22;4316;53.840;10.762;2023-07-13T00:48:17;18.60;99.90
8557;DHT22;4316;53.840;10.762;2023-07-13T00:50:45;18.60;99.90
8557;DHT22;4316;53.840;10.762;2023-07-13T00:53:12;18.70;99.90
8557;DHT22;4316;53.840;10.762;2023-07-13T00:55:39;18.60;99.90
8557;DHT22;4316;53.840;10.762;2023-07-13T00:58:06;18.60;99.90
8557;DHT22;4316;53.840;10.762;2023-07-13T01:00:35;18.60;99.90
8557;DHT22;4316;53.840;10.762;2023-07-13T01:03:03;18.60;99.90
8557;DHT22;4316;53.840;10.762;2023-07-13T01:05:31;18.50;99.90
8557;DHT22;4316;53.840;10.762;2023-07-13T01:07:59;18.50;99.90
8557;DHT22;4316;53.840;10.762;2023-07-13T01:10:26;18.40;99.90
8557;DHT22;4316;53.840;10.762;2023-07-13T01:12:53;18.40;99.90
8557;DHT22;4316;53.840;10.762;2023-07-13T01:15:44;18.40;99.90
8557;DHT22;4316;53.840;10.762;2023-07-13T01:18:15;18.40;99.90
8557;DHT22;4316;53.840;10.762;2023-07-13T01:20:46;18.30;99.90
8557;DHT22;4316;53.840;10.762;2023-07-13T01:23:13;18.10;99.90
8557;DHT22;4316;53.840;10.762;2023-07-13T01:25:38;18.10;99.90
8557;DHT22;4316;53.840;10.762;2023-07-13T01:28:07;18.10;99.90
8557;DHT22;4316;53.840;10.762;2023-07-13T01:30:35;18.20;99.90
8557;DHT22;4316;53.840;10.762;2023-07-13T01:33:01;18.10;99.90
8557;DHT22;4316;53.840;10.762;2023-07-13T01:35:29;18.10;99.90
8557;DHT22;4316;53.840;10.762;2023-07-13T01:37:55;18.10;99.90
8557;DHT22;4316;53.840;10.762;2023-07-13T01:40:22;18.10;99.90
8557;DHT22;4316;53.840;10.762;2023-07-13T01:42:48;18.10;99.90
8557;DHT22;4316;53.840;10.762;2023-07-13T01:45:14;18.00;99.90
8557;DHT22;4316;53.840;10.762;2023-07-13T01:47:40;18.00;99.90
8557;DHT22;4316;53.840;10.762;2023-07-13T01:50:06;18.00;99.90
8557;DHT22;4316;53.840;10.762;2023-07-13T01:52:32;17.90;99.90
8557;DHT22;4316;53.840;10.762;2023-07-13T01:54:57;17.90;99.90
8557;DHT22;4316;53.840;10.762;2023-07-13T01:57:23;17.80;99.90
8557;DHT22;4316;53.840;10.762;2023-07-13T01:59:49;17.80;99.90
8557;DHT22;4316;53.840;10.762;2023-07-13T02:02:15;17.80;99.90
8557;DHT22;4316;53.840;10.762;2023-07-13T02:04:41;17.70;99.90
8557;DHT22;4316;53.840;10.762;2023-07-13T02:07:08;17.70;99.90
8557;DHT22;4316;53.840;10.762;2023-07-13T02:09:34;17.60;99.90
8557;DHT22;4316;53.840;10.762;2023-07-13T02:12:00;17.60;99.90
8557;DHT22;4316;53.840;10.762;2023-07-13T02:14:30;17.60;99.90
8557;DHT22;4316;53.840;10.762;2023-07-13T02:16:56;17.50;99.90
8557;DHT22;4316;53.840;10.762;2023-07-13T02:19:22;17.50;99.90
8557;DHT22;4316;53.840;10.762;2023-07-13T02:21:48;17.50;99.90
8557;DHT22;4316;53.840;10.762;2023-07-13T02:24:14;17.50;99.90
8557;DHT22;4316;53.840;10.762;2023-07-13T02:26:43;17.40;99.90
8557;DHT22;4316;53.840;10.762;2023-07-13T02:29:10;17.40;99.90
8557;DHT22;4316;53.840;10.762;2023-07-13T02:31:35;17.40;99.90
8557;DHT22;4316;53.840;10.762;2023-07-13T02:34:04;17.40;99.90
8557;DHT22;4316;53.840;10.762;2023-07-13T02:36:31;17.40;99.90
8557;DHT22;4316;53.840;10.762;2023-07-13T02:39:02;17.30;99.90
8557;DHT22;4316;53.840;10.762;2023-07-13T02:41:28;17.30;99.90
8557;DHT22;4316;53.840;10.762;2023-07-13T02:43:54;17.30;99.90
8557;DHT22;4316;53.840;10.762;2023-07-13T02:46:31;17.20;99.90
8557;DHT22;4316;53.840;10.762;2023-07-13T02:48:57;17.20;99.90
8557;DHT22;4316;53.840;10.762;2023-07-13T02:51:22;17.20;99.90
8557;DHT22;4316;53.840;10.762;2023-07-13T02:53:48;17.10;99.90
8557;DHT22;4316;53.840;10.762;2023-07-13T02:56:14;17.10;99.90
8557;DHT22;4316;53.840;10.762;2023-07-13T02:58:39;17.00;99.90
8557;DHT22;4316;53.840;10.762;2023-07-13T03:01:07;17.00;99.90
8557;DHT22;4316;53.840;10.762;2023-07-13T03:03:33;17.00;99.90
8557;DHT22;4316;53.840;10.762;2023-07-13T03:06:02;17.00;99.90
8557;DHT22;4316;53.840;10.762;2023-07-13T03:08:33;16.90;99.90
8557;DHT22;4316;53.840;10.762;2023-07-13T03:11:05;16.90;99.90
8557;DHT22;4316;53.840;10.762;2023-07-13T03:13:33;16.80;99.90
8557;DHT22;4316;53.840;10.762;2023-07-13T03:16:01;16.90;99.90
8557;DHT22;4316;53.840;10.762;2023-07-13T03:18:28;16.90;99.90
8557;DHT22;4316;53.840;10.762;2023-07-13T03:20:55;16.90;99.90
8557;DHT22;4316;53.840;10.762;2023-07-13T03:23:22;16.90;99.90
8557;DHT22;4316;53.840;10.762;2023-07-13T03:25:48;16.90;99.90
8557;DHT22;4316;53.840;10.762;2023-07-13T03:28:14;16.90;99.90
8557;DHT22;4316;53.840;10.762;2023-07-13T03:30:42;16.80;99.90
8557;DHT22;4316;53.840;10.762;2023-07-13T03:33:08;16.90;99.90
8557;DHT22;4316;53.840;10.762;2023-07-13T03:35:35;16.80;99.90
8557;DHT22;4316;53.840;10.762;2023-07-13T03:38:01;16.90;99.90
8557;DHT22;4316;53.840;10.762;2023-07-13T03:40:28;16.90;99.90
8557;DHT22;4316;53.840;10.762;2023-07-13T03:42:53;16.80;99.90
8557;DHT22;4316;53.840;10.762;2023-07-13T03:45:20;16.80;99.90
8557;DHT22;4316;53.840;10.762;2023-07-13T03:47:49;16.80;99.90
8557;DHT22;4316;53.840;10.762;2023-07-13T03:50:17;16.80;99.90
8557;DHT22;4316;53.840;10.762;2023-07-13T03:52:43;16.80;99.90
8557;DHT22;4316;53.840;10.762;2023-07-13T03:55:15;16.80;99.90
8557;DHT22;4316;53.840;10.762;2023-07-13T03:57:40;16.80;99.90
8557;DHT22;4316;53.840;10.762;2023-07-13T04:00:07;16.90;99.90
8557;DHT22;4316;53.840;10.762;2023-07-13T04:02:41;16.90;99.90
8557;DHT22;4316;53.840;10.762;2023-07-13T04:05:07;16.90;99.90
8557;DHT22;4316;53.840;10.762;2023-07-13T04:07:33;17.00;99.90
8557;DHT22;4316;53.840;10.762;2023-07-13T04:09:59;16.90;99.90
8557;DHT22;4316;53.840;10.762;2023-07-13T04:12:25;16.90;99.90
8557;DHT22;4316;53.840;10.762;2023-07-13T04:14:50;17.00;99.90
8557;DHT22;4316;53.840;10.762;2023-07-13T04:17:16;17.00;99.90
8557;DHT22;4316;53.840;10.762;2023-07-13T04:19:42;17.10;99.90
8557;DHT22;4316;53.840;10.762;2023-07-13T04:22:08;17.10;99.90
8557;DHT22;4316;53.840;10.762;2023-07-13T04:24:33;17.10;99.90
8557;DHT22;4316;53.840;10.762;2023-07-13T04:26:59;17.10;99.90
8557;DHT22;4316;53.840;10.762;2023-07-13T04:29:25;17.10;99.90
8557;DHT22;4316;53.840;10.762;2023-07-13T04:31:51;17.20;99.90
8557;DHT22;4316;53.840;10.762;2023-07-13T04:34:17;17.20;99.90
8557;DHT22;4316;53.840;10.762;2023-07-13T04:36:43;17.20;99.90
8557;DHT22;4316;53.840;10.762;2023-07-13T04:39:09;17.20;99.90
8557;DHT22;4316;53.840;10.762;2023-07-13T04:41:34;17.20;99.90
8557;DHT22;4316;53.840;10.762;2023-07-13T04:44:00;17.30;99.90
8557;DHT22;4316;53.840;10.762;2023-07-13T04:46:26;17.30;99.90
8557;DHT22;4316;53.840;10.762;2023-07-13T04:48:51;17.40;99.90
8557;DHT22;4316;53.840;10.762;2023-07-13T04:51:18;17.40;99.90
8557;DHT22;4316;53.840;10.762;2023-07-13T04:53:44;17.40;99.90
8557;DHT22;4316;53.840;10.762;2023-07-13T04:56:10;17.50;99.90
8557;DHT22;4316;53.840;10.762;2023-07-13T04:58:35;17.60;99.90
8557;DHT22;4316;53.840;10.762;2023-07-13T05:01:05;17.70;99.90
8557;DHT22;4316;53.840;10.762;2023-07-13T05:03:32;17.90;99.90
8557;DHT22;4316;53.840;10.762;2023-07-13T05:06:00;17.90;99.90
8557;DHT22;4316;53.840;10.762;2023-07-13T05:08:27;18.00;99.90
8557;DHT22;4316;53.840;10.762;2023-07-13T05:10:53;18.10;99.90
8557;DHT22;4316;53.840;10.762;2023-07-13T05:13:19;18.10;99.90
8557;DHT22;4316;53.840;10.762;2023-07-13T05:15:45;18.20;99.90
8557;DHT22;4316;53.840;10.762;2023-07-13T05:18:11;18.20;99.90
8557;DHT22;4316;53.840;10.762;2023-07-13T05:20:36;18.30;99.90
8557;DHT22;4316;53.840;10.762;2023-07-13T05:23:02;18.30;99.90
8557;DHT22;4316;53.840;10.762;2023-07-13T05:25:28;18.40;99.90
8557;DHT22;4316;53.840;10.762;2023-07-13T05:27:54;18.40;99.90
8557;DHT22;4316;53.840;10.762;2023-07-13T05:30:19;18.40;99.90
8557;DHT22;4316;53.840;10.762;2023-07-13T05:32:45;18.40;99.90
8557;DHT22;4316;53.840;10.762;2023-07-13T05:35:11;18.50;99.90
8557;DHT22;4316;53.840;10.762;2023-07-13T05:37:37;18.40;99.90
8557;DHT22;4316;53.840;10.762;2023-07-13T05:40:03;18.50;99.90
8557;DHT22;4316;53.840;10.762;2023-07-13T05:42:29;18.60;99.90
8557;DHT22;4316;53.840;10.762;2023-07-13T05:44:56;18.80;99.90
8557;DHT22;4316;53.840;10.762;2023-07-13T05:47:22;18.80;99.90
8557;DHT22;4316;53.840;10.762;2023-07-13T05:49:48;18.80;99.90
8557;DHT22;4316;53.840;10.762;2023-07-13T05:52:14;18.90;99.90
8557;DHT22;4316;53.840;10.762;2023-07-13T05:54:39;19.10;99.90
8557;DHT22;4316;53.840;10.762;2023-07-13T05:57:05;19.10;99.90
8557;DHT22;4316;53.840;10.762;2023-07-13T05:59:31;19.20;99.90
8557;DHT22;4316;53.840;10.762;2023-07-13T06:01:57;19.10;99.90
8557;DHT22;4316;53.840;10.762;2023-07-13T06:04:22;19.20;99.90
8557;DHT22;4316;53.840;10.762;2023-07-13T06:06:48;19.40;99.90
8557;DHT22;4316;53.840;10.762;2023-07-13T06:09:14;19.40;99.90
8557;DHT22;4316;53.840;10.762;2023-07-13T06:11:39;19.50;99.90
8557;DHT22;4316;53.840;10.762;2023-07-13T06:14:05;19.50;99.90
8557;DHT22;4316;53.840;10.762;2023-07-13T06:16:31;19.60;99.90
8557;DHT22;4316;53.840;10.762;2023-07-13T06:18:56;19.70;99.90
8557;DHT22;4316;53.840;10.762;2023-07-13T06:21:23;19.80;99.90
8557;DHT22;4316;53.840;10.762;2023-07-13T06:23:50;20.00;99.90
8557;DHT22;4316;53.840;10.762;2023-07-13T06:26:17;20.00;99.90
8557;DHT22;4316;53.840;10.762;2023-07-13T06:28:43;20.10;99.90
8557;DHT22;4316;53.840;10.762;2023-07-13T06:31:11;20.20;99.90
8557;DHT22;4316;53.840;10.762;2023-07-13T06:33:37;20.20;99.90
8557;DHT22;4316;53.840;10.762;2023-07-13T06:36:04;20.40;99.90
8557;DHT22;4316;53.840;10.762;2023-07-13T06:38:31;20.50;99.90
8557;DHT22;4316;53.840;10.762;2023-07-13T06:40:57;20.40;99.90
8557;DHT22;4316;53.840;10.762;2023-07-13T06:43:23;20.40;99.90
8557;DHT22;4316;53.840;10.762;2023-07-13T06:45:50;20.70;99.90
8557;DHT22;4316;53.840;10.762;2023-07-13T06:48:17;20.70;99.90
8557;DHT22;4316;53.840;10.762;2023-07-13T06:50:44;20.70;99.90
8557;DHT22;4316;53.840;10.762;2023-07-13T06:53:11;20.80;99.90
8557;DHT22;4316;53.840;10.762;2023-07-13T06:55:37;20.80;99.90
8557;DHT22;4316;53.840;10.762;2023-07-13T06:58:03;20.70;99.90
8557;DHT22;4316;53.840;10.762;2023-07-13T07:00:29;20.50;99.90
8557;DHT22;4316;53.840;10.762;2023-07-13T07:02:55;20.50;99.90
8557;DHT22;4316;53.840;10.762;2023-07-13T07:05:21;20.50;99.90
8557;DHT22;4316;53.840;10.762;2023-07-13T07:07:51;20.40;99.90
8557;DHT22;4316;53.840;10.762;2023-07-13T07:10:18;20.40;99.90
8557;DHT22;4316;53.840;10.762;2023-07-13T07:12:44;20.30;99.90
8557;DHT22;4316;53.840;10.762;2023-07-13T07:15:10;20.50;99.90
8557;DHT22;4316;53.840;10.762;2023-07-13T07:17:36;20.60;99.90
8557;DHT22;4316;53.840;10.762;2023-07-13T07:20:03;20.80;99.90
8557;DHT22;4316;53.840;10.762;2023-07-13T07:22:29;20.90;99.90
8557;DHT22;4316;53.840;10.762;2023-07-13T07:24:59;20.90;99.90
8557;DHT22;4316;53.840;10.762;2023-07-13T07:27:25;21.00;99.90
8557;DHT22;4316;53.840;10.762;2023-07-13T07:29:51;21.10;99.90
8557;DHT22;4316;53.840;10.762;2023-07-13T07:32:17;21.10;99.90
8557;DHT22;4316;53.840;10.762;2023-07-13T07:34:42;21.00;99.90
8557;DHT22;4316;53.840;10.762;2023-07-13T07:37:13;20.80;99.90
8557;DHT22;4316;53.840;10.762;2023-07-13T07:39:39;20.70;99.90
8557;DHT22;4316;53.840;10.762;2023-07-13T07:42:05;20.70;99.90
8557;DHT22;4316;53.840;10.762;2023-07-13T07:44:32;20.70;99.90
8557;DHT22;4316;53.840;10.762;2023-07-13T07:46:58;20.80;99.90
8557;DHT22;4316;53.840;10.762;2023-07-13T07:49:24;20.90;99.90
8557;DHT22;4316;53.840;10.762;2023-07-13T07:51:50;20.90;99.90
8557;DHT22;4316;53.840;10.762;2023-07-13T07:54:16;21.10;99.90
8557;DHT22;4316;53.840;10.762;2023-07-13T07:56:42;21.20;99.90
8557;DHT22;4316;53.840;10.762;2023-07-13T07:59:08;21.10;99.90
8557;DHT22;4316;53.840;10.762;2023-07-13T08:01:33;21.00;99.90
8557;DHT22;4316;53.840;10.762;2023-07-13T08:03:59;21.00;99.90
8557;DHT22;4316;53.840;10.762;2023-07-13T08:06:25;21.10;99.90
8557;DHT22;4316;53.840;10.762;2023-07-13T08:08:51;21.30;99.90
8557;DHT22;4316;53.840;10.762;2023-07-13T08:11:17;21.50;99.90
8557;DHT22;4316;53.840;10.762;2023-07-13T08:13:43;21.70;99.90
8557;DHT22;4316;53.840;10.762;2023-07-13T08:16:10;21.70;99.90
8557;DHT22;4316;53.840;10.762;2023-07-13T08:18:37;21.70;99.90
8557;DHT22;4316;53.840;10.762;2023-07-13T08:21:07;21.50;99.90
8557;DHT22;4316;53.840;10.762;2023-07-13T08:23:34;21.60;99.90
8557;DHT22;4316;53.840;10.762;2023-07-13T08:26:00;21.80;99.90
8557;DHT22;4316;53.840;10.762;2023-07-13T08:28:30;22.00;99.90
8557;DHT22;4316;53.840;10.762;2023-07-13T08:31:01;22.50;99.90
8557;DHT22;4316;53.840;10.762;2023-07-13T08:33:27;22.90;99.90
8557;DHT22;4316;53.840;10.762;2023-07-13T08:35:53;22.80;99.90
8557;DHT22;4316;53.840;10.762;2023-07-13T08:38:18;22.80;99.90
8557;DHT22;4316;53.840;10.762;2023-07-13T08:40:51;23.00;99.90
8557;DHT22;4316;53.840;10.762;2023-07-13T08:43:22;23.30;99.90
8557;DHT22;4316;53.840;10.762;2023-07-13T08:45:54;23.50;99.90
8557;DHT22;4316;53.840;10.762;2023-07-13T08:48:27;23.70;99.90
8557;DHT22;4316;53.840;10.762;2023-07-13T08:51:09;23.90;99.90
8557;DHT22;4316;53.840;10.762;2023-07-13T08:53:50;23.80;99.90
8557;DHT22;4316;53.840;10.762;2023-07-13T08:56:23;23.80;99.90
8557;DHT22;4316;53.840;10.762;2023-07-13T08:58:55;23.60;99.90
8557;DHT22;4316;53.840;10.762;2023-07-13T09:01:42;23.60;99.90
8557;DHT22;4316;53.840;10.762;2023-07-13T09:04:16;23.60;99.90
8557;DHT22;4316;53.840;10.762;2023-07-13T09:07:05;23.60;99.90
8557;DHT22;4316;53.840;10.762;2023-07-13T09:09:54;23.90;99.90
8557;DHT22;4316;53.840;10.762;2023-07-13T09:12:35;24.10;99.90
8557;DHT22;4316;53.840;10.762;2023-07-13T09:15:04;24.30;99.90
8557;DHT22;4316;53.840;10.762;2023-07-13T09:17:43;24.30;99.90
8557;DHT22;4316;53.840;10.762;2023-07-13T09:22:48;24.10;99.90
8557;DHT22;4316;53.840;10.762;2023-07-13T09:25:29;24.30;99.90
8557;DHT22;4316;53.840;10.762;2023-07-13T09:27:58;24.20;99.90
8557;DHT22;4316;53.840;10.762;2023-07-13T09:31:24;24.00;99.90
8557;DHT22;4316;53.840;10.762;2023-07-13T09:33:26;24.00;99.90
8557;DHT22;4316;53.840;10.762;2023-07-13T09:35:55;24.10;99.90
8557;DHT22;4316;53.840;10.762;2023-07-13T09:38:27;24.20;99.90
8557;DHT22;4316;53.840;10.762;2023-07-13T09:43:36;24.00;99.90
8557;DHT22;4316;53.840;10.762;2023-07-13T09:46:02;24.10;99.90
8557;DHT22;4316;53.840;10.762;2023-07-13T09:48:35;24.30;99.90
8557;DHT22;4316;53.840;10.762;2023-07-13T09:51:15;24.20;99.90
8557;DHT22;4316;53.840;10.762;2023-07-13T09:53:42;24.00;99.90
8557;DHT22;4316;53.840;10.762;2023-07-13T09:56:22;23.90;99.90
8557;DHT22;4316;53.840;10.762;2023-07-13T09:58:48;23.70;99.90
8557;DHT22;4316;53.840;10.762;2023-07-13T10:01:31;23.50;99.90
8557;DHT22;4316;53.840;10.762;2023-07-13T10:03:58;23.70;99.90
8557;DHT22;4316;53.840;10.762;2023-07-13T10:06:23;24.00;99.90
8557;DHT22;4316;53.840;10.762;2023-07-13T10:08:52;24.00;99.90
8557;DHT22;4316;53.840;10.762;2023-07-13T10:11:20;24.20;99.90
8557;DHT22;4316;53.840;10.762;2023-07-13T10:13:56;24.40;99.90
8557;DHT22;4316;53.840;10.762;2023-07-13T10:16:25;24.60;99.90
8557;DHT22;4316;53.840;10.762;2023-07-13T10:18:59;24.90;99.90
8557;DHT22;4316;53.840;10.762;2023-07-13T10:21:32;25.00;99.90
8557;DHT22;4316;53.840;10.762;2023-07-13T10:24:22;25.00;99.90
8557;DHT22;4316;53.840;10.762;2023-07-13T10:30:24;24.80;99.90
8557;DHT22;4316;53.840;10.762;2023-07-13T10:32:24;24.60;99.90
8557;DHT22;4316;53.840;10.762;2023-07-13T10:34:51;24.50;99.90
8557;DHT22;4316;53.840;10.762;2023-07-13T10:37:38;24.40;99.90
8557;DHT22;4316;53.840;10.762;2023-07-13T10:40:12;24.30;99.90
8557;DHT22;4316;53.840;10.762;2023-07-13T10:42:40;24.50;99.90
8557;DHT22;4316;53.840;10.762;2023-07-13T10:45:17;24.60;99.90
8557;DHT22;4316;53.840;10.762;2023-07-13T10:47:44;24.70;99.70
8557;DHT22;4316;53.840;10.762;2023-07-13T10:50:30;24.70;98.60
8557;DHT22;4316;53.840;10.762;2023-07-13T10:53:03;24.70;98.70
8557;DHT22;4316;53.840;10.762;2023-07-13T10:58:43;25.00;98.80
8557;DHT22;4316;53.840;10.762;2023-07-13T11:01:15;25.20;99.00
8557;DHT22;4316;53.840;10.762;2023-07-13T11:03:55;25.40;98.50
8557;DHT22;4316;53.840;10.762;2023-07-13T11:08:58;25.50;98.80
8557;DHT22;4316;53.840;10.762;2023-07-13T11:22:09;25.20;98.70
8557;DHT22;4316;53.840;10.762;2023-07-13T11:27:44;25.30;99.60
8557;DHT22;4316;53.840;10.762;2023-07-13T11:33:12;25.00;98.00
8557;DHT22;4316;53.840;10.762;2023-07-13T11:41:26;23.90;99.30
8557;DHT22;4316;53.840;10.762;2023-07-13T11:44:07;23.40;98.30
8557;DHT22;4316;53.840;10.762;2023-07-13T11:46:36;23.10;98.90
8557;DHT22;4316;53.840;10.762;2023-07-13T11:49:05;23.00;99.20
8557;DHT22;4316;53.840;10.762;2023-07-13T11:51:33;22.80;98.80
8557;DHT22;4316;53.840;10.762;2023-07-13T11:54:04;22.70;99.00
8557;DHT22;4316;53.840;10.762;2023-07-13T11:56:30;22.60;99.20
8557;DHT22;4316;53.840;10.762;2023-07-13T11:58:59;22.40;99.90
8557;DHT22;4316;53.840;10.762;2023-07-13T12:01:31;22.30;99.90
8557;DHT22;4316;53.840;10.762;2023-07-13T12:04:02;22.10;99.90
8557;DHT22;4316;53.840;10.762;2023-07-13T12:06:31;22.20;99.90
8557;DHT22;4316;53.840;10.762;2023-07-13T12:09:02;22.20;99.90
8557;DHT22;4316;53.840;10.762;2023-07-13T12:11:29;22.20;99.90
8557;DHT22;4316;53.840;10.762;2023-07-13T12:13:55;22.20;99.90
8557;DHT22;4316;53.840;10.762;2023-07-13T12:18:47;22.00;99.90
8557;DHT22;4316;53.840;10.762;2023-07-13T12:21:17;22.10;99.90
8557;DHT22;4316;53.840;10.762;2023-07-13T12:23:44;22.20;99.90
8557;DHT22;4316;53.840;10.762;2023-07-13T12:26:12;22.20;99.90
8557;DHT22;4316;53.840;10.762;2023-07-13T12:28:45;22.20;99.90
8557;DHT22;4316;53.840;10.762;2023-07-13T12:31:42;22.40;99.90
8557;DHT22;4316;53.840;10.762;2023-07-13T12:34:23;22.80;99.90
8557;DHT22;4316;53.840;10.762;2023-07-13T12:36:51;23.20;99.90
8557;DHT22;4316;53.840;10.762;2023-07-13T12:41:52;23.50;99.90
8557;DHT22;4316;53.840;10.762;2023-07-13T12:44:26;23.20;99.90
8557;DHT22;4316;53.840;10.762;2023-07-13T12:47:06;23.00;99.90
8557;DHT22;4316;53.840;10.762;2023-07-13T12:49:41;22.90;99.90
8557;DHT22;4316;53.840;10.762;2023-07-13T12:52:20;22.90;99.90
8557;DHT22;4316;53.840;10.762;2023-07-13T12:54:54;23.10;99.90
8557;DHT22;4316;53.840;10.762;2023-07-13T12:57:22;23.30;99.90
8557;DHT22;4316;53.840;10.762;2023-07-13T12:59:54;23.60;99.90
8557;DHT22;4316;53.840;10.762;2023-07-13T13:02:28;23.60;99.90
8557;DHT22;4316;53.840;10.762;2023-07-13T13:04:55;23.20;99.90
8557;DHT22;4316;53.840;10.762;2023-07-13T13:07:22;22.90;99.90
8557;DHT22;4316;53.840;10.762;2023-07-13T13:09:48;22.60;99.90
8557;DHT22;4316;53.840;10.762;2023-07-13T13:12:14;22.20;99.90
8557;DHT22;4316;53.840;10.762;2023-07-13T13:14:40;21.70;99.90
8557;DHT22;4316;53.840;10.762;2023-07-13T13:17:29;21.20;99.90
8557;DHT22;4316;53.840;10.762;2023-07-13T13:19:56;20.90;99.90
8557;DHT22;4316;53.840;10.762;2023-07-13T13:22:22;20.60;99.90
8557;DHT22;4316;53.840;10.762;2023-07-13T13:24:48;20.50;99.90
8557;DHT22;4316;53.840;10.762;2023-07-13T13:27:19;20.50;99.90
8557;DHT22;4316;53.840;10.762;2023-07-13T13:29:46;20.50;99.90
8557;DHT22;4316;53.840;10.762;2023-07-13T13:32:14;20.20;99.90
8557;DHT22;4316;53.840;10.762;2023-07-13T13:34:40;20.00;99.90
8557;DHT22;4316;53.840;10.762;2023-07-13T13:37:19;19.70;99.90
8557;DHT22;4316;53.840;10.762;2023-07-13T13:39:46;19.50;99.90
8557;DHT22;4316;53.840;10.762;2023-07-13T13:42:13;19.50;99.90
8557;DHT22;4316;53.840;10.762;2023-07-13T13:44:39;19.40;99.90
8557;DHT22;4316;53.840;10.762;2023-07-13T13:47:30;19.40;99.90
8557;DHT22;4316;53.840;10.762;2023-07-13T13:49:56;19.50;99.90
8557;DHT22;4316;53.840;10.762;2023-07-13T13:52:23;19.50;99.90
8557;DHT22;4316;53.840;10.762;2023-07-13T13:54:49;19.60;99.90
8557;DHT22;4316;53.840;10.762;2023-07-13T13:57:15;19.80;99.90
8557;DHT22;4316;53.840;10.762;2023-07-13T13:59:41;19.90;99.90
8557;DHT22;4316;53.840;10.762;2023-07-13T14:02:27;19.90;99.90
8557;DHT22;4316;53.840;10.762;2023-07-13T14:05:01;19.90;99.90
8557;DHT22;4316;53.840;10.762;2023-07-13T14:07:28;20.10;99.90
8557;DHT22;4316;53.840;10.762;2023-07-13T14:09:59;20.20;99.90
8557;DHT22;4316;53.840;10.762;2023-07-13T14:12:28;20.20;99.90
8557;DHT22;4316;53.840;10.762;2023-07-13T14:14:56;20.30;99.90
8557;DHT22;4316;53.840;10.762;2023-07-13T14:17:25;20.30;99.90
8557;DHT22;4316;53.840;10.762;2023-07-13T14:19:53;20.30;99.90
8557;DHT22;4316;53.840;10.762;2023-07-13T14:22:26;20.40;99.90
8557;DHT22;4316;53.840;10.762;2023-07-13T14:24:53;20.40;99.90
8557;DHT22;4316;53.840;10.762;2023-07-13T14:27:19;20.40;99.90
8557;DHT22;4316;53.840;10.762;2023-07-13T14:29:45;20.50;99.90
8557;DHT22;4316;53.840;10.762;2023-07-13T14:32:12;20.60;99.90
8557;DHT22;4316;53.840;10.762;2023-07-13T14:34:38;20.80;99.90
8557;DHT22;4316;53.840;10.762;2023-07-13T14:37:05;20.90;99.90
8557;DHT22;4316;53.840;10.762;2023-07-13T14:39:31;20.90;99.90
8557;DHT22;4316;53.840;10.762;2023-07-13T14:41:57;20.90;99.90
8557;DHT22;4316;53.840;10.762;2023-07-13T14:44:30;20.80;99.90
8557;DHT22;4316;53.840;10.762;2023-07-13T14:46:57;20.80;99.90
8557;DHT22;4316;53.840;10.762;2023-07-13T14:51:56;20.80;99.90
8557;DHT22;4316;53.840;10.762;2023-07-13T14:54:23;20.80;99.90
8557;DHT22;4316;53.840;10.762;2023-07-13T14:56:49;20.80;99.90
8557;DHT22;4316;53.840;10.762;2023-07-13T14:59:16;20.90;99.90
8557;DHT22;4316;53.840;10.762;2023-07-13T15:01:44;20.90;99.90
8557;DHT22;4316;53.840;10.762;2023-07-13T15:04:11;20.80;99.90
8557;DHT22;4316;53.840;10.762;2023-07-13T15:06:59;20.90;99.90
8557;DHT22;4316;53.840;10.762;2023-07-13T15:09:26;20.80;99.90
8557;DHT22;4316;53.840;10.762;2023-07-13T15:11:54;20.70;99.90
8557;DHT22;4316;53.840;10.762;2023-07-13T15:14:19;20.70;99.90
8557;DHT22;4316;53.840;10.762;2023-07-13T15:16:47;20.70;99.90
8557;DHT22;4316;53.840;10.762;2023-07-13T15:19:15;20.60;99.90
8557;DHT22;4316;53.840;10.762;2023-07-13T15:21:41;20.80;99.90
8557;DHT22;4316;53.840;10.762;2023-07-13T15:24:10;21.10;99.90
8557;DHT22;4316;53.840;10.762;2023-07-13T15:26:35;21.50;99.90
8557;DHT22;4316;53.840;10.762;2023-07-13T15:29:01;21.70;99.90
8557;DHT22;4316;53.840;10.762;2023-07-13T15:31:28;21.70;99.90
8557;DHT22;4316;53.840;10.762;2023-07-13T15:33:56;21.70;99.90
8557;DHT22;4316;53.840;10.762;2023-07-13T15:36:23;21.70;99.90
8557;DHT22;4316;53.840;10.762;2023-07-13T15:38:53;21.70;99.90
8557;DHT22;4316;53.840;10.762;2023-07-13T15:41:25;21.70;99.90
8557;DHT22;4316;53.840;10.762;2023-07-13T15:43:53;21.70;99.90
8557;DHT22;4316;53.840;10.762;2023-07-13T15:46:20;21.70;99.90
8557;DHT22;4316;53.840;10.762;2023-07-13T15:48:50;21.60;99.90
8557;DHT22;4316;53.840;10.762;2023-07-13T15:51:28;21.50;99.90
8557;DHT22;4316;53.840;10.762;2023-07-13T15:53:58;21.50;99.90
8557;DHT22;4316;53.840;10.762;2023-07-13T15:56:26;21.70;99.90
8557;DHT22;4316;53.840;10.762;2023-07-13T15:58:53;21.80;99.90
8557;DHT22;4316;53.840;10.762;2023-07-13T16:01:20;21.90;99.90
8557;DHT22;4316;53.840;10.762;2023-07-13T16:03:49;22.00;99.90
8557;DHT22;4316;53.840;10.762;2023-07-13T16:06:28;22.10;99.90
8557;DHT22;4316;53.840;10.762;2023-07-13T16:08:55;22.10;99.90
8557;DHT22;4316;53.840;10.762;2023-07-13T16:11:32;22.10;99.90
8557;DHT22;4316;53.840;10.762;2023-07-13T16:13:59;22.10;99.90
8557;DHT22;4316;53.840;10.762;2023-07-13T16:16:30;22.10;99.90
8557;DHT22;4316;53.840;10.762;2023-07-13T16:19:02;22.20;99.90
8557;DHT22;4316;53.840;10.762;2023-07-13T16:21:30;22.30;99.90
8557;DHT22;4316;53.840;10.762;2023-07-13T16:23:58;22.20;99.90
8557;DHT22;4316;53.840;10.762;2023-07-13T16:26:35;22.20;99.90
8557;DHT22;4316;53.840;10.762;2023-07-13T16:29:19;22.10;99.90
8557;DHT22;4316;53.840;10.762;2023-07-13T16:32:06;22.10;99.90
8557;DHT22;4316;53.840;10.762;2023-07-13T16:34:35;21.80;99.90
8557;DHT22;4316;53.840;10.762;2023-07-13T16:37:15;21.80;99.90
8557;DHT22;4316;53.840;10.762;2023-07-13T16:39:48;21.80;99.90
8557;DHT22;4316;53.840;10.762;2023-07-13T16:42:15;21.90;99.90